createdAt,value
2018-03-23T00:00:49.470Z,21.43
2018-03-23T00:03:23.529Z,24.27
2018-03-23T00:05:57.325Z,26.00
2018-03-23T00:08:31.740Z,26.70
2018-03-23T00:11:05.642Z,25.43
2018-03-23T00:13:40.790Z,25.77
2018-03-23T00:16:14.850Z,28.10
2018-03-23T00:18:49.634Z,31.63
2018-03-23T00:21:23.562Z,26.30
2018-03-23T00:23:57.934Z,27.23
2018-03-23T00:26:32.451Z,28.57
2018-03-23T00:29:06.441Z,25.20
2018-03-23T00:31:40.422Z,26.03
2018-03-23T00:34:14.579Z,25.40
2018-03-23T00:36:48.531Z,25.83
2018-03-23T00:39:22.731Z,30.87
2018-03-23T00:41:57.072Z,27.97
2018-03-23T00:44:31.961Z,23.70
2018-03-23T00:47:05.873Z,24.17
2018-03-23T00:49:40.615Z,23.20
2018-03-23T00:52:14.855Z,24.43
2018-03-23T00:54:49.984Z,25.63
2018-03-23T00:57:26.487Z,25.43
2018-03-23T01:00:00.699Z,25.17
2018-03-23T01:02:34.554Z,22.17
2018-03-23T01:05:09.131Z,24.43
2018-03-23T01:07:42.952Z,27.97
2018-03-23T01:10:17.830Z,27.23
2018-03-23T01:12:51.438Z,24.60
2018-03-23T01:15:27.166Z,27.63
2018-03-23T01:18:02.106Z,26.87
2018-03-23T01:20:36.611Z,26.10
2018-03-23T01:23:10.324Z,30.60
2018-03-23T01:25:45.065Z,30.43
2018-03-23T01:28:19.345Z,25.90
2018-03-23T01:30:54.022Z,28.97
2018-03-23T01:33:29.516Z,25.77
2018-03-23T01:36:04.083Z,26.77
2018-03-23T01:38:38.601Z,30.80
2018-03-23T01:41:14.249Z,28.83
2018-03-23T01:43:48.251Z,29.33
2018-03-23T01:46:22.505Z,31.67
2018-03-23T01:48:56.943Z,28.30
2018-03-23T01:51:31.106Z,30.17
2018-03-23T01:54:06.382Z,30.23
2018-03-23T01:56:40.576Z,28.07
2018-03-23T01:59:15.984Z,27.87
2018-03-23T02:01:50.318Z,28.20
2018-03-23T02:04:24.806Z,29.77
2018-03-23T02:06:58.959Z,28.23
2018-03-23T02:09:34.265Z,29.27
2018-03-23T02:12:08.344Z,30.90
2018-03-23T02:14:42.180Z,32.33
2018-03-23T02:17:16.242Z,31.17
2018-03-23T02:19:50.688Z,33.20
2018-03-23T02:22:26.126Z,34.13
2018-03-23T02:25:00.628Z,30.30
2018-03-23T02:27:35.032Z,27.93
2018-03-23T02:30:09.446Z,29.10
2018-03-23T02:32:44.138Z,29.33
2018-03-23T02:35:17.849Z,32.20
2018-03-23T02:37:52.713Z,25.13
2018-03-23T02:40:27.220Z,28.53
2018-03-23T02:43:01.344Z,28.33
2018-03-23T02:45:35.886Z,30.57
2018-03-23T02:48:09.914Z,35.00
2018-03-23T02:50:45.185Z,30.00
2018-03-23T02:53:20.666Z,34.07
2018-03-23T02:55:55.034Z,33.90
2018-03-23T02:58:30.119Z,31.87
2018-03-23T03:01:04.820Z,32.83
2018-03-23T03:03:39.074Z,30.30
2018-03-23T03:06:14.366Z,28.47
2018-03-23T03:08:48.557Z,29.40
2018-03-23T03:11:23.900Z,29.70
2018-03-23T03:13:58.584Z,28.67
2018-03-23T03:16:32.430Z,28.03
2018-03-23T03:19:06.526Z,31.20
2018-03-23T03:21:40.916Z,31.93
2018-03-23T03:24:14.804Z,34.07
2018-03-23T03:26:48.481Z,28.13
2018-03-23T03:29:22.458Z,33.27
2018-03-23T03:31:57.045Z,32.30
2018-03-23T03:34:31.224Z,27.93
2018-03-23T03:37:05.006Z,30.17
2018-03-23T03:39:39.839Z,29.00
2018-03-23T03:42:14.436Z,30.57
2018-03-23T03:44:49.276Z,30.33
2018-03-23T03:47:23.302Z,29.70
2018-03-23T03:49:57.655Z,30.00
2018-03-23T03:52:31.902Z,35.57
2018-03-23T03:55:05.758Z,31.03
2018-03-23T03:57:40.236Z,30.67
2018-03-23T04:00:15.237Z,30.37
2018-03-23T04:02:49.073Z,32.10
2018-03-23T04:05:23.622Z,34.90
2018-03-23T04:07:57.520Z,34.87
2018-03-23T04:10:31.829Z,37.50
2018-03-23T04:13:06.850Z,34.20
2018-03-23T04:15:40.960Z,33.70
2018-03-23T04:18:14.577Z,33.40
2018-03-23T04:20:48.693Z,34.33
2018-03-23T04:23:23.118Z,33.23
2018-03-23T04:25:57.128Z,32.13
2018-03-23T04:28:31.542Z,32.43
2018-03-23T04:31:07.094Z,32.83
2018-03-23T04:33:41.696Z,33.53
2018-03-23T04:36:15.963Z,32.03
2018-03-23T04:38:49.747Z,33.33
2018-03-23T04:41:24.605Z,35.73
2018-03-23T04:43:58.393Z,38.20
2018-03-23T04:46:32.378Z,32.60
2018-03-23T04:49:07.115Z,35.53
2018-03-23T04:51:41.237Z,33.93
2018-03-23T04:54:15.717Z,34.87
2018-03-23T04:56:49.429Z,33.47
2018-03-23T04:59:23.837Z,32.43
2018-03-23T05:01:58.739Z,32.33
2018-03-23T05:04:33.190Z,32.20
2018-03-23T05:07:10.957Z,36.10
2018-03-23T05:09:45.427Z,37.27
2018-03-23T05:12:19.502Z,39.07
2018-03-23T05:14:53.120Z,34.03
2018-03-23T05:17:27.060Z,36.20
2018-03-23T05:20:01.384Z,38.40
2018-03-23T05:22:35.901Z,35.20
2018-03-23T05:25:10.214Z,37.10
2018-03-23T05:27:44.048Z,38.17
2018-03-23T05:30:17.851Z,39.43
2018-03-23T05:32:51.629Z,40.97
2018-03-23T05:35:26.141Z,38.03
2018-03-23T05:38:00.372Z,35.30
2018-03-23T05:40:35.484Z,37.10
2018-03-23T05:43:10.494Z,39.03
2018-03-23T05:45:44.196Z,40.93
2018-03-23T05:48:18.366Z,45.97
2018-03-23T05:50:52.678Z,39.60
2018-03-23T05:53:26.521Z,41.17
2018-03-23T05:56:01.208Z,39.73
2018-03-23T05:58:35.976Z,39.17
2018-03-23T06:01:09.820Z,42.40
2018-03-23T06:03:43.855Z,43.57
2018-03-23T06:06:18.344Z,41.43
2018-03-23T06:08:52.625Z,40.07
2018-03-23T06:11:27.394Z,44.03
2018-03-23T06:14:01.504Z,42.67
2018-03-23T06:16:35.250Z,43.63
2018-03-23T06:19:09.971Z,40.77
2018-03-23T06:21:44.716Z,41.40
2018-03-23T06:24:19.211Z,45.37
2018-03-23T06:26:53.293Z,41.93
2018-03-23T06:29:28.105Z,44.73
2018-03-23T06:32:03.369Z,44.20
2018-03-23T06:34:37.763Z,49.30
2018-03-23T06:37:11.556Z,46.40
2018-03-23T06:39:45.640Z,43.30
2018-03-23T06:42:20.360Z,39.37
2018-03-23T06:44:54.992Z,49.77
2018-03-23T06:47:28.996Z,37.40
2018-03-23T06:50:03.210Z,38.70
2018-03-23T06:52:38.517Z,39.67
2018-03-23T06:55:12.785Z,42.40
2018-03-23T06:57:47.173Z,42.43
2018-03-23T07:00:21.637Z,44.97
2018-03-23T07:02:55.509Z,44.57
2018-03-23T07:05:29.357Z,34.47
2018-03-23T07:08:03.132Z,38.40
2018-03-23T07:10:36.867Z,39.43
2018-03-23T07:13:10.518Z,33.77
2018-03-23T07:15:44.331Z,42.67
2018-03-23T07:18:18.122Z,39.13
2018-03-23T07:20:51.967Z,43.27
2018-03-23T07:23:25.799Z,39.17
2018-03-23T07:25:59.969Z,42.50
2018-03-23T07:28:34.474Z,35.80
2018-03-23T07:31:08.177Z,42.40
2018-03-23T07:33:41.872Z,42.93
2018-03-23T07:36:16.732Z,38.77
2018-03-23T07:38:50.520Z,41.80
2018-03-23T07:41:25.149Z,42.90
2018-03-23T07:44:00.058Z,41.90
2018-03-23T07:46:34.045Z,42.33
2018-03-23T07:49:07.914Z,40.87
2018-03-23T07:51:42.322Z,43.10
2018-03-23T07:54:16.958Z,39.23
2018-03-23T07:56:52.389Z,44.97
2018-03-23T07:59:26.568Z,41.00
2018-03-23T08:02:00.561Z,44.10
2018-03-23T08:04:34.501Z,43.17
2018-03-23T08:07:08.631Z,46.13
2018-03-23T08:09:43.378Z,46.77
2018-03-23T08:12:18.011Z,39.87
2018-03-23T08:14:52.594Z,44.87
2018-03-23T08:17:27.242Z,50.73
2018-03-23T08:20:01.477Z,43.23
2018-03-23T08:22:36.731Z,46.23
2018-03-23T08:25:10.680Z,40.93
2018-03-23T08:27:45.036Z,42.90
2018-03-23T08:30:18.756Z,39.40
2018-03-23T08:32:52.654Z,37.33
2018-03-23T08:35:26.662Z,43.97
2018-03-23T08:38:00.808Z,42.23
2018-03-23T08:40:34.909Z,44.00
2018-03-23T08:43:09.242Z,37.63
2018-03-23T08:45:43.708Z,40.40
2018-03-23T08:48:18.968Z,41.57
2018-03-23T08:50:54.153Z,42.97
2018-03-23T08:53:27.948Z,41.30
2018-03-23T08:56:02.150Z,40.73
2018-03-23T08:58:36.834Z,45.97
2018-03-23T09:01:11.030Z,46.07
2018-03-23T09:03:45.604Z,39.43
2018-03-23T09:06:19.636Z,42.97
2018-03-23T09:08:54.825Z,37.30
2018-03-23T09:11:29.557Z,43.63
2018-03-23T09:14:03.735Z,44.60
2018-03-23T09:16:37.691Z,33.93
2018-03-23T09:19:12.411Z,39.70
2018-03-23T09:21:47.570Z,36.53
2018-03-23T09:24:22.879Z,34.50
2018-03-23T09:26:58.100Z,39.40
2018-03-23T09:29:31.874Z,37.03
2018-03-23T09:32:06.371Z,33.97
2018-03-23T09:34:40.901Z,29.23
2018-03-23T09:37:15.159Z,34.97
2018-03-23T09:39:49.791Z,31.70
2018-03-23T09:42:24.558Z,35.20
2018-03-23T09:44:58.719Z,31.63
2018-03-23T09:47:32.312Z,33.17
2018-03-23T09:50:06.986Z,27.87
2018-03-23T09:52:41.297Z,56.90
2018-03-23T09:55:15.621Z,35.57
2018-03-23T09:57:51.046Z,41.03
2018-03-23T10:00:25.352Z,32.77
2018-03-23T10:02:59.126Z,35.30
2018-03-23T10:05:33.025Z,35.60
2018-03-23T10:08:07.471Z,32.80
2018-03-23T10:10:43.052Z,29.53
2018-03-23T10:13:17.810Z,28.80
2018-03-23T10:15:51.811Z,32.43
2018-03-23T10:18:26.184Z,31.70
2018-03-23T10:21:00.638Z,30.43
2018-03-23T10:23:34.645Z,29.90
2018-03-23T10:26:08.738Z,36.57
2018-03-23T10:28:42.667Z,36.85
2018-03-23T10:31:16.549Z,58.17
2018-03-23T10:33:50.380Z,45.83
2018-03-23T10:36:25.553Z,40.63
2018-03-23T10:38:59.418Z,41.77
2018-03-23T10:41:33.359Z,40.97
2018-03-23T10:44:07.026Z,35.77
2018-03-23T10:46:40.932Z,40.57
2018-03-23T10:49:15.550Z,98.53
2018-03-23T10:51:50.187Z,89.50
2018-03-23T10:54:25.605Z,113.13
2018-03-23T10:56:59.857Z,47.00
2018-03-23T10:59:33.520Z,51.10
2018-03-23T11:02:07.501Z,40.60
2018-03-23T11:04:42.562Z,64.23
2018-03-23T11:07:16.573Z,60.27
2018-03-23T11:09:50.829Z,34.90
2018-03-23T11:12:25.161Z,26.47
2018-03-23T11:14:58.984Z,40.13
2018-03-23T11:17:34.064Z,37.07
2018-03-23T11:20:07.991Z,41.13
2018-03-23T11:22:42.930Z,26.57
2018-03-23T11:25:17.244Z,33.43
2018-03-23T11:27:51.395Z,28.60
2018-03-23T11:30:25.426Z,30.67
2018-03-23T11:32:59.409Z,30.43
2018-03-23T11:35:33.121Z,29.47
2018-03-23T11:38:07.289Z,28.23
2018-03-23T11:40:41.885Z,30.33
2018-03-23T11:43:15.927Z,36.13
2018-03-23T11:45:50.247Z,28.77
2018-03-23T11:48:25.178Z,26.63
2018-03-23T11:50:59.565Z,34.73
2018-03-23T11:53:33.929Z,28.63
2018-03-23T11:56:08.614Z,24.97
2018-03-23T11:58:44.250Z,25.83
2018-03-23T12:01:18.107Z,27.57
2018-03-23T12:03:52.315Z,27.70
2018-03-23T12:06:26.118Z,28.43
2018-03-23T12:09:00.106Z,23.70
2018-03-23T12:11:33.839Z,21.73
2018-03-23T12:14:08.257Z,24.80
2018-03-23T12:16:42.892Z,22.57
2018-03-23T12:19:17.706Z,25.50
2018-03-23T12:21:51.718Z,24.80
2018-03-23T12:24:25.768Z,22.53
2018-03-23T12:26:59.851Z,23.03
2018-03-23T12:29:34.164Z,25.70
2018-03-23T12:32:08.177Z,24.20
2018-03-23T12:34:42.428Z,26.87
2018-03-23T12:37:16.996Z,26.83
2018-03-23T12:39:50.964Z,28.53
2018-03-23T12:42:24.927Z,29.77
2018-03-23T12:45:00.074Z,27.53
2018-03-23T12:47:35.269Z,28.90
2018-03-23T12:50:09.658Z,21.30
2018-03-23T12:52:43.655Z,25.97
2018-03-23T12:55:17.445Z,27.97
2018-03-23T12:57:51.305Z,22.70
2018-03-23T13:00:25.461Z,23.10
2018-03-23T13:02:59.976Z,25.10
2018-03-23T13:05:34.123Z,44.60
2018-03-23T13:08:07.892Z,33.40
2018-03-23T13:10:41.676Z,25.57
2018-03-23T13:13:16.534Z,25.53
2018-03-23T13:15:50.815Z,25.50
2018-03-23T13:18:24.582Z,24.77
2018-03-23T13:20:58.589Z,26.20
2018-03-23T13:23:33.336Z,32.50
2018-03-23T13:26:08.265Z,32.60
2018-03-23T13:28:42.521Z,23.03
2018-03-23T13:31:17.167Z,29.30
2018-03-23T13:33:51.476Z,22.40
2018-03-23T13:36:25.433Z,24.47
2018-03-23T13:38:59.655Z,22.43
2018-03-23T13:41:34.440Z,22.37
2018-03-23T13:44:08.779Z,27.37
2018-03-23T13:46:43.087Z,26.67
2018-03-23T13:49:17.589Z,26.27
2018-03-23T13:51:51.646Z,24.17
2018-03-23T13:54:25.364Z,19.37
2018-03-23T13:57:00.246Z,21.43
2018-03-23T13:59:40.279Z,23.47
2018-03-23T14:02:15.302Z,23.53
2018-03-23T14:04:49.141Z,21.43
2018-03-23T14:07:23.886Z,24.57
2018-03-23T14:09:59.454Z,24.27
2018-03-23T14:12:34.351Z,19.33
2018-03-23T14:15:08.862Z,24.90
2018-03-23T14:17:43.218Z,20.50
2018-03-23T14:20:18.578Z,24.63
2018-03-23T14:22:52.811Z,19.17
2018-03-23T14:25:26.649Z,23.90
2018-03-23T14:28:00.906Z,21.40
2018-03-23T14:30:34.802Z,21.10
2018-03-23T14:33:09.564Z,18.70
2018-03-23T14:35:43.751Z,19.40
2018-03-23T14:38:18.120Z,18.20
2018-03-23T14:40:53.154Z,17.53
2018-03-23T14:43:27.217Z,18.10
2018-03-23T14:46:01.167Z,19.40
2018-03-23T14:48:36.446Z,19.30
2018-03-23T14:51:10.658Z,18.13
2018-03-23T14:53:44.782Z,19.77
2018-03-23T14:56:19.266Z,17.33
2018-03-23T15:02:00.433Z,17.83
2018-03-23T15:04:34.560Z,18.50
2018-03-23T15:07:08.692Z,19.07
2018-03-23T15:09:43.627Z,19.30
2018-03-23T15:12:17.731Z,18.03
2018-03-23T15:14:51.480Z,21.30
2018-03-23T15:17:25.282Z,18.63
2018-03-23T15:20:00.038Z,20.40
2018-03-23T15:22:34.150Z,18.03
2018-03-23T15:25:08.635Z,20.80
2018-03-23T15:27:44.147Z,24.73
2018-03-23T15:30:18.814Z,23.33
2018-03-23T15:32:53.389Z,18.17
2018-03-23T15:35:28.354Z,22.57
2018-03-23T15:38:03.550Z,23.80
2018-03-23T15:40:37.896Z,17.17
2018-03-23T15:43:11.906Z,17.40
2018-03-23T15:45:45.729Z,17.97
2018-03-23T15:48:19.964Z,20.60
2018-03-23T15:50:54.287Z,18.80
2018-03-23T15:53:29.153Z,21.27
2018-03-23T15:56:02.887Z,26.90
2018-03-23T15:58:37.267Z,21.10
2018-03-23T16:01:11.373Z,18.67
2018-03-23T16:03:45.263Z,18.53
2018-03-23T16:06:20.054Z,18.60
2018-03-23T16:08:54.589Z,17.90
2018-03-23T16:11:28.376Z,19.73
2018-03-23T16:14:02.186Z,17.30
2018-03-23T16:16:36.045Z,17.67
2018-03-23T16:19:14.490Z,19.27
2018-03-23T16:21:49.754Z,18.93
2018-03-23T16:24:24.210Z,19.30
2018-03-23T16:26:58.776Z,26.10
2018-03-23T16:29:32.963Z,23.13
2018-03-23T16:32:07.008Z,20.63
2018-03-23T16:34:41.493Z,20.50
2018-03-23T16:37:15.494Z,22.47
2018-03-23T16:39:49.764Z,21.57
2018-03-23T16:42:23.554Z,27.90
2018-03-23T16:44:58.149Z,23.60
2018-03-23T16:47:32.306Z,19.20
2018-03-23T16:50:07.628Z,19.87
2018-03-23T16:52:41.570Z,16.93
2018-03-23T16:55:15.476Z,18.20
2018-03-23T16:57:49.564Z,25.17
2018-03-23T17:00:25.733Z,24.40
2018-03-23T17:03:00.097Z,19.43
2018-03-23T17:05:33.858Z,26.60
2018-03-23T17:08:08.174Z,19.20
2018-03-23T17:10:42.738Z,27.30
2018-03-23T17:13:17.432Z,29.03
2018-03-23T17:15:51.408Z,17.63
2018-03-23T17:18:25.072Z,15.80
2018-03-23T17:20:58.821Z,19.03
2018-03-23T17:23:33.021Z,19.77
2018-03-23T17:26:07.551Z,18.03
2018-03-23T17:28:41.534Z,18.67
2018-03-23T17:31:15.371Z,23.17
2018-03-23T17:33:49.062Z,20.00
2018-03-23T17:36:22.907Z,19.53
2018-03-23T17:38:57.338Z,28.87
2018-03-23T17:41:31.384Z,17.77
2018-03-23T17:44:05.352Z,18.63
2018-03-23T17:46:40.205Z,22.53
2018-03-23T17:49:14.751Z,17.37
2018-03-23T17:51:49.390Z,19.30
2018-03-23T17:54:24.724Z,16.77
2018-03-23T17:56:59.594Z,17.97
2018-03-23T17:59:41.622Z,25.00
2018-03-23T18:02:16.258Z,22.47
2018-03-23T18:04:50.848Z,23.50
2018-03-23T18:07:24.858Z,17.13
2018-03-23T18:09:58.855Z,17.07
2018-03-23T18:12:32.583Z,15.27
2018-03-23T18:15:06.700Z,17.83
2018-03-23T18:17:41.954Z,16.17
2018-03-23T18:20:15.926Z,16.67
2018-03-23T18:22:50.681Z,18.43
2018-03-23T18:25:24.683Z,20.43
2018-03-23T18:27:59.983Z,15.07
2018-03-23T18:30:34.125Z,20.63
2018-03-23T18:33:07.972Z,15.57
2018-03-23T18:35:42.555Z,20.57
2018-03-23T18:38:16.630Z,20.13
2018-03-23T18:40:52.340Z,15.73
2018-03-23T18:43:26.015Z,20.37
2018-03-23T18:45:59.752Z,31.63
2018-03-23T18:48:34.014Z,21.33
2018-03-23T18:51:08.517Z,18.20
2018-03-23T18:53:42.602Z,21.83
2018-03-23T18:56:16.811Z,20.57
2018-03-23T18:58:51.211Z,19.30
2018-03-23T19:01:24.908Z,19.90
2018-03-23T19:03:59.605Z,19.37
2018-03-23T19:06:33.798Z,30.40
2018-03-23T19:09:07.464Z,23.43
2018-03-23T19:11:42.287Z,21.40
2018-03-23T19:14:16.853Z,21.83
2018-03-23T19:16:50.591Z,20.03
2018-03-23T19:19:24.403Z,23.43
2018-03-23T19:21:59.180Z,22.10
2018-03-23T19:24:33.240Z,17.40
2018-03-23T19:27:07.402Z,25.43
2018-03-23T19:29:41.926Z,22.13
2018-03-23T19:32:17.230Z,20.37
2018-03-23T19:34:51.794Z,20.97
2018-03-23T19:37:26.953Z,22.37
2018-03-23T19:40:00.869Z,24.47
2018-03-23T19:42:35.466Z,20.23
2018-03-23T19:45:10.286Z,22.63
2018-03-23T19:47:45.343Z,19.83
2018-03-23T19:50:19.257Z,20.87
2018-03-23T19:52:53.815Z,22.40
2018-03-23T19:55:27.731Z,27.20
2018-03-23T19:58:02.174Z,22.40
2018-03-23T20:00:36.963Z,20.97
2018-03-23T20:03:11.814Z,19.97
2018-03-23T20:05:45.417Z,18.37
2018-03-23T20:08:19.241Z,23.13
2018-03-23T20:10:53.022Z,21.47
2018-03-23T20:13:27.238Z,19.97
2018-03-23T20:16:02.363Z,27.13
2018-03-23T20:18:36.342Z,21.37
2018-03-23T20:21:11.017Z,26.87
2018-03-23T20:23:44.733Z,26.33
2018-03-23T20:26:18.477Z,31.53
2018-03-23T20:28:54.793Z,22.30
2018-03-23T20:34:30.554Z,23.03
2018-03-23T20:37:04.572Z,23.87
2018-03-23T20:39:39.529Z,19.97
2018-03-23T20:42:13.301Z,24.13
2018-03-23T20:44:47.178Z,18.20
2018-03-23T20:47:20.993Z,20.67
2018-03-23T20:49:54.813Z,22.77
2018-03-23T20:52:29.590Z,26.43
2018-03-23T20:55:03.614Z,25.83
2018-03-23T20:57:38.311Z,29.33
2018-03-23T21:00:12.643Z,27.13
2018-03-23T21:02:47.177Z,26.53
2018-03-23T21:05:21.230Z,21.23
2018-03-23T21:07:56.246Z,23.87
2018-03-23T21:10:30.321Z,26.70
2018-03-23T21:13:04.161Z,20.47
2018-03-23T21:15:38.083Z,22.73
2018-03-23T21:18:12.055Z,19.33
2018-03-23T21:20:47.047Z,24.43
2018-03-23T21:23:21.753Z,24.73
2018-03-23T21:25:56.446Z,23.00
2018-03-23T21:28:30.043Z,22.57
2018-03-23T21:31:05.154Z,21.87
2018-03-23T21:33:38.957Z,22.43
2018-03-23T21:36:14.075Z,25.83
2018-03-23T21:38:49.177Z,24.20
2018-03-23T21:41:24.946Z,22.57
2018-03-23T21:43:59.150Z,23.63
2018-03-23T21:46:33.701Z,24.23
2018-03-23T21:49:08.500Z,24.37
2018-03-23T21:51:42.837Z,28.13
2018-03-23T21:54:18.078Z,30.60
2018-03-23T21:56:52.054Z,26.37
2018-03-23T21:59:25.903Z,22.37
2018-03-23T22:02:01.321Z,21.63
2018-03-23T22:04:35.103Z,24.83
2018-03-23T22:07:09.027Z,33.43
2018-03-23T22:09:42.952Z,30.03
2018-03-23T22:12:18.309Z,25.77
2018-03-23T22:14:52.814Z,27.70
2018-03-23T22:17:26.959Z,30.63
2018-03-23T22:20:01.925Z,27.10
2018-03-23T22:22:36.049Z,26.80
2018-03-23T22:25:09.694Z,28.70
2018-03-23T22:27:44.435Z,24.63
2018-03-23T22:30:18.417Z,22.13
2018-03-23T22:32:53.455Z,24.00
2018-03-23T22:35:27.843Z,27.47
2018-03-23T22:38:01.991Z,24.27
2018-03-23T22:40:36.596Z,28.30
2018-03-23T22:43:10.969Z,27.73
2018-03-23T22:45:46.164Z,23.80
2018-03-23T22:48:20.118Z,28.07
2018-03-23T22:50:53.736Z,22.60
2018-03-23T22:53:28.213Z,23.13
2018-03-23T22:56:02.515Z,28.40
2018-03-23T22:58:36.369Z,25.53
2018-03-23T23:01:10.141Z,23.97
2018-03-23T23:03:44.342Z,24.10
2018-03-23T23:06:18.603Z,24.77
2018-03-23T23:08:52.462Z,30.00
2018-03-23T23:11:26.212Z,26.83
2018-03-23T23:14:00.752Z,25.03
2018-03-23T23:16:34.916Z,25.00
2018-03-23T23:19:08.704Z,28.30
2018-03-23T23:21:43.100Z,24.57
2018-03-23T23:24:17.122Z,26.83
2018-03-23T23:26:50.911Z,25.47
2018-03-23T23:29:24.965Z,26.17
2018-03-23T23:31:59.428Z,24.47
2018-03-23T23:34:33.493Z,24.80
2018-03-23T23:37:08.037Z,23.17
2018-03-23T23:39:41.946Z,23.57
2018-03-23T23:42:16.656Z,24.63
2018-03-23T23:44:50.666Z,23.20
2018-03-23T23:47:25.982Z,23.93
2018-03-23T23:50:00.070Z,23.50
2018-03-23T23:52:33.685Z,24.40
2018-03-23T23:55:07.632Z,25.80
2018-03-23T23:57:42.367Z,26.43
